sensor_id;sensor_type;location;lat;lon;timestamp;P1;durP1;ratioP1;P2;durP2;ratioP2
62679;SDS011;48746;55.578;37.902;2022-10-18T00:04:33;17.13;;;9.88;;
62679;SDS011;48746;55.578;37.902;2022-10-18T00:06:59;20.85;;;10.38;;
62679;SDS011;48746;55.578;37.902;2022-10-18T00:09:25;20.25;;;10.57;;
62679;SDS011;48746;55.578;37.902;2022-10-18T00:15:02;20.50;;;10.23;;
62679;SDS011;48746;55.578;37.902;2022-10-18T00:17:29;19.42;;;10.15;;
62679;SDS011;48746;55.578;37.902;2022-10-18T00:19:55;17.73;;;9.93;;
62679;SDS011;48746;55.578;37.902;2022-10-18T00:22:21;18.40;;;10.07;;
62679;SDS011;48746;55.578;37.902;2022-10-18T00:24:48;18.80;;;10.70;;
62679;SDS011;48746;55.578;37.902;2022-10-18T00:27:14;18.60;;;9.77;;
62679;SDS011;48746;55.578;37.902;2022-10-18T00:29:41;20.48;;;10.10;;
62679;SDS011;48746;55.578;37.902;2022-10-18T00:32:07;19.25;;;9.70;;
62679;SDS011;48746;55.578;37.902;2022-10-18T00:34:34;21.67;;;10.35;;
62679;SDS011;48746;55.578;37.902;2022-10-18T00:37:00;18.02;;;9.90;;
62679;SDS011;48746;55.578;37.902;2022-10-18T00:39:26;18.23;;;10.45;;
62679;SDS011;48746;55.578;37.902;2022-10-18T00:47:48;21.25;;;10.48;;
62679;SDS011;48746;55.578;37.902;2022-10-18T00:50:23;17.35;;;10.23;;
62679;SDS011;48746;55.578;37.902;2022-10-18T00:52:54;18.80;;;10.43;;
62679;SDS011;48746;55.578;37.902;2022-10-18T00:55:23;19.80;;;10.60;;
62679;SDS011;48746;55.578;37.902;2022-10-18T00:57:50;20.17;;;10.30;;
62679;SDS011;48746;55.578;37.902;2022-10-18T01:00:20;16.38;;;9.77;;
62679;SDS011;48746;55.578;37.902;2022-10-18T01:02:47;18.92;;;10.68;;
62679;SDS011;48746;55.578;37.902;2022-10-18T01:05:15;18.95;;;10.93;;
62679;SDS011;48746;55.578;37.902;2022-10-18T01:10:36;19.75;;;10.65;;
62679;SDS011;48746;55.578;37.902;2022-10-18T01:29:52;16.77;;;10.02;;
62679;SDS011;48746;55.578;37.902;2022-10-18T01:32:23;16.88;;;9.38;;
62679;SDS011;48746;55.578;37.902;2022-10-18T01:34:53;17.85;;;9.68;;
62679;SDS011;48746;55.578;37.902;2022-10-18T01:37:25;15.65;;;9.13;;
62679;SDS011;48746;55.578;37.902;2022-10-18T01:39:53;15.73;;;9.23;;
62679;SDS011;48746;55.578;37.902;2022-10-18T01:42:20;18.10;;;9.85;;
62679;SDS011;48746;55.578;37.902;2022-10-18T01:44:48;17.45;;;10.23;;
62679;SDS011;48746;55.578;37.902;2022-10-18T01:47:15;15.57;;;9.95;;
62679;SDS011;48746;55.578;37.902;2022-10-18T01:49:42;15.73;;;9.75;;
62679;SDS011;48746;55.578;37.902;2022-10-18T01:52:12;17.45;;;9.73;;
62679;SDS011;48746;55.578;37.902;2022-10-18T01:54:41;17.58;;;10.07;;
62679;SDS011;48746;55.578;37.902;2022-10-18T01:57:10;17.52;;;10.85;;
62679;SDS011;48746;55.578;37.902;2022-10-18T02:02:19;16.60;;;9.43;;
62679;SDS011;48746;55.578;37.902;2022-10-18T02:07:43;23.17;;;9.73;;
62679;SDS011;48746;55.578;37.902;2022-10-18T02:13:22;17.45;;;9.50;;
62679;SDS011;48746;55.578;37.902;2022-10-18T02:16:15;14.70;;;9.15;;
62679;SDS011;48746;55.578;37.902;2022-10-18T02:18:45;17.02;;;9.75;;
62679;SDS011;48746;55.578;37.902;2022-10-18T02:24:23;19.00;;;9.85;;
62679;SDS011;48746;55.578;37.902;2022-10-18T02:26:52;16.90;;;9.52;;
62679;SDS011;48746;55.578;37.902;2022-10-18T02:29:18;19.02;;;10.15;;
62679;SDS011;48746;55.578;37.902;2022-10-18T02:31:45;17.23;;;10.00;;
62679;SDS011;48746;55.578;37.902;2022-10-18T02:34:23;16.77;;;9.43;;
62679;SDS011;48746;55.578;37.902;2022-10-18T02:36:56;16.00;;;9.50;;
62679;SDS011;48746;55.578;37.902;2022-10-18T02:39:34;20.13;;;9.80;;
62679;SDS011;48746;55.578;37.902;2022-10-18T02:42:03;16.38;;;9.35;;
62679;SDS011;48746;55.578;37.902;2022-10-18T02:44:32;19.33;;;9.40;;
62679;SDS011;48746;55.578;37.902;2022-10-18T02:46:59;16.38;;;9.95;;
62679;SDS011;48746;55.578;37.902;2022-10-18T02:49:26;17.45;;;9.15;;
62679;SDS011;48746;55.578;37.902;2022-10-18T02:51:52;17.27;;;9.75;;
62679;SDS011;48746;55.578;37.902;2022-10-18T02:54:18;17.30;;;9.77;;
62679;SDS011;48746;55.578;37.902;2022-10-18T02:56:44;17.83;;;9.38;;
62679;SDS011;48746;55.578;37.902;2022-10-18T02:59:11;17.98;;;9.90;;
62679;SDS011;48746;55.578;37.902;2022-10-18T03:01:40;14.45;;;9.63;;
62679;SDS011;48746;55.578;37.902;2022-10-18T03:04:06;16.23;;;9.77;;
62679;SDS011;48746;55.578;37.902;2022-10-18T03:06:33;18.77;;;9.65;;
62679;SDS011;48746;55.578;37.902;2022-10-18T03:09:03;18.75;;;10.23;;
62679;SDS011;48746;55.578;37.902;2022-10-18T03:13:59;18.88;;;9.85;;
62679;SDS011;48746;55.578;37.902;2022-10-18T03:16:25;18.50;;;10.82;;
62679;SDS011;48746;55.578;37.902;2022-10-18T03:18:51;15.07;;;9.90;;
62679;SDS011;48746;55.578;37.902;2022-10-18T03:21:20;20.75;;;10.05;;
62679;SDS011;48746;55.578;37.902;2022-10-18T03:23:47;20.48;;;10.05;;
62679;SDS011;48746;55.578;37.902;2022-10-18T03:26:13;16.40;;;9.85;;
62679;SDS011;48746;55.578;37.902;2022-10-18T03:28:39;20.02;;;10.63;;
62679;SDS011;48746;55.578;37.902;2022-10-18T03:31:08;17.88;;;10.65;;
62679;SDS011;48746;55.578;37.902;2022-10-18T03:33:34;15.40;;;10.73;;
62679;SDS011;48746;55.578;37.902;2022-10-18T03:36:00;19.77;;;11.15;;
62679;SDS011;48746;55.578;37.902;2022-10-18T03:38:26;18.17;;;10.15;;
62679;SDS011;48746;55.578;37.902;2022-10-18T03:40:56;21.95;;;10.52;;
62679;SDS011;48746;55.578;37.902;2022-10-18T03:43:22;17.88;;;10.52;;
62679;SDS011;48746;55.578;37.902;2022-10-18T03:45:49;19.45;;;10.52;;
62679;SDS011;48746;55.578;37.902;2022-10-18T03:48:16;16.55;;;10.05;;
62679;SDS011;48746;55.578;37.902;2022-10-18T03:50:45;20.38;;;10.13;;
62679;SDS011;48746;55.578;37.902;2022-10-18T03:53:11;18.10;;;10.55;;
62679;SDS011;48746;55.578;37.902;2022-10-18T03:55:37;22.83;;;11.18;;
62679;SDS011;48746;55.578;37.902;2022-10-18T03:58:03;21.08;;;10.95;;
62679;SDS011;48746;55.578;37.902;2022-10-18T04:00:33;16.23;;;9.40;;
62679;SDS011;48746;55.578;37.902;2022-10-18T04:02:59;21.30;;;11.30;;
62679;SDS011;48746;55.578;37.902;2022-10-18T04:05:26;22.42;;;11.75;;
62679;SDS011;48746;55.578;37.902;2022-10-18T04:07:55;19.52;;;10.52;;
62679;SDS011;48746;55.578;37.902;2022-10-18T04:10:25;22.85;;;11.10;;
62679;SDS011;48746;55.578;37.902;2022-10-18T04:12:51;17.23;;;10.32;;
62679;SDS011;48746;55.578;37.902;2022-10-18T04:15:18;18.88;;;10.82;;
62679;SDS011;48746;55.578;37.902;2022-10-18T04:17:44;17.95;;;10.70;;
62679;SDS011;48746;55.578;37.902;2022-10-18T04:23:17;19.40;;;11.40;;
62679;SDS011;48746;55.578;37.902;2022-10-18T04:25:43;18.33;;;10.90;;
62679;SDS011;48746;55.578;37.902;2022-10-18T04:28:09;20.48;;;10.63;;
62679;SDS011;48746;55.578;37.902;2022-10-18T04:33:42;24.05;;;11.27;;
62679;SDS011;48746;55.578;37.902;2022-10-18T04:36:08;20.73;;;11.20;;
62679;SDS011;48746;55.578;37.902;2022-10-18T04:38:34;17.52;;;9.52;;
62679;SDS011;48746;55.578;37.902;2022-10-18T04:44:07;21.42;;;10.05;;
62679;SDS011;48746;55.578;37.902;2022-10-18T04:46:33;19.73;;;10.18;;
62679;SDS011;48746;55.578;37.902;2022-10-18T04:49:01;20.83;;;10.40;;
62679;SDS011;48746;55.578;37.902;2022-10-18T04:51:27;25.15;;;10.95;;
62679;SDS011;48746;55.578;37.902;2022-10-18T04:53:54;21.50;;;11.02;;
62679;SDS011;48746;55.578;37.902;2022-10-18T04:56:20;17.42;;;10.55;;
62679;SDS011;48746;55.578;37.902;2022-10-18T04:58:47;17.85;;;10.48;;
62679;SDS011;48746;55.578;37.902;2022-10-18T05:04:19;21.42;;;10.50;;
62679;SDS011;48746;55.578;37.902;2022-10-18T05:06:46;16.15;;;9.80;;
62679;SDS011;48746;55.578;37.902;2022-10-18T05:09:12;21.17;;;11.18;;
62679;SDS011;48746;55.578;37.902;2022-10-18T05:11:41;21.55;;;10.73;;
62679;SDS011;48746;55.578;37.902;2022-10-18T05:14:08;20.48;;;10.70;;
62679;SDS011;48746;55.578;37.902;2022-10-18T05:16:35;24.33;;;10.40;;
62679;SDS011;48746;55.578;37.902;2022-10-18T05:19:02;21.25;;;11.50;;
62679;SDS011;48746;55.578;37.902;2022-10-18T05:21:29;21.27;;;11.57;;
62679;SDS011;48746;55.578;37.902;2022-10-18T05:23:56;20.67;;;11.25;;
62679;SDS011;48746;55.578;37.902;2022-10-18T05:26:22;22.67;;;11.27;;
62679;SDS011;48746;55.578;37.902;2022-10-18T05:28:48;25.65;;;12.30;;
62679;SDS011;48746;55.578;37.902;2022-10-18T05:31:18;26.73;;;12.60;;
62679;SDS011;48746;55.578;37.902;2022-10-18T05:33:44;21.00;;;10.75;;
62679;SDS011;48746;55.578;37.902;2022-10-18T05:36:10;21.38;;;11.80;;
62679;SDS011;48746;55.578;37.902;2022-10-18T05:38:39;18.45;;;10.80;;
62679;SDS011;48746;55.578;37.902;2022-10-18T05:44:13;28.75;;;12.40;;
62679;SDS011;48746;55.578;37.902;2022-10-18T05:46:40;22.13;;;11.45;;
62679;SDS011;48746;55.578;37.902;2022-10-18T05:49:06;23.48;;;12.23;;
62679;SDS011;48746;55.578;37.902;2022-10-18T05:51:34;21.63;;;11.65;;
62679;SDS011;48746;55.578;37.902;2022-10-18T05:54:00;21.20;;;12.00;;
62679;SDS011;48746;55.578;37.902;2022-10-18T05:56:27;22.80;;;12.82;;
62679;SDS011;48746;55.578;37.902;2022-10-18T05:58:53;23.02;;;12.55;;
62679;SDS011;48746;55.578;37.902;2022-10-18T06:04:26;21.25;;;11.77;;
62679;SDS011;48746;55.578;37.902;2022-10-18T06:06:52;21.67;;;11.27;;
62679;SDS011;48746;55.578;37.902;2022-10-18T06:09:20;20.20;;;11.32;;
62679;SDS011;48746;55.578;37.902;2022-10-18T06:11:47;24.00;;;11.88;;
62679;SDS011;48746;55.578;37.902;2022-10-18T06:14:13;26.30;;;12.05;;
62679;SDS011;48746;55.578;37.902;2022-10-18T06:16:39;28.55;;;11.77;;
62679;SDS011;48746;55.578;37.902;2022-10-18T06:19:05;28.80;;;13.10;;
62679;SDS011;48746;55.578;37.902;2022-10-18T06:21:31;22.88;;;12.32;;
62679;SDS011;48746;55.578;37.902;2022-10-18T06:23:58;22.33;;;11.10;;
62679;SDS011;48746;55.578;37.902;2022-10-18T06:26:25;26.13;;;10.98;;
62679;SDS011;48746;55.578;37.902;2022-10-18T06:28:52;24.77;;;11.75;;
62679;SDS011;48746;55.578;37.902;2022-10-18T06:31:21;24.60;;;11.50;;
62679;SDS011;48746;55.578;37.902;2022-10-18T06:33:48;20.88;;;10.93;;
62679;SDS011;48746;55.578;37.902;2022-10-18T06:36:15;20.17;;;11.75;;
62679;SDS011;48746;55.578;37.902;2022-10-18T06:38:43;24.77;;;11.18;;
62679;SDS011;48746;55.578;37.902;2022-10-18T06:41:12;23.55;;;11.98;;
62679;SDS011;48746;55.578;37.902;2022-10-18T06:43:39;27.92;;;12.38;;
62679;SDS011;48746;55.578;37.902;2022-10-18T06:46:05;25.80;;;12.02;;
62679;SDS011;48746;55.578;37.902;2022-10-18T06:48:34;24.30;;;11.98;;
62679;SDS011;48746;55.578;37.902;2022-10-18T06:51:02;21.25;;;11.30;;
62679;SDS011;48746;55.578;37.902;2022-10-18T06:53:32;19.27;;;11.15;;
62679;SDS011;48746;55.578;37.902;2022-10-18T06:56:00;27.48;;;13.80;;
62679;SDS011;48746;55.578;37.902;2022-10-18T06:58:28;26.85;;;12.70;;
62679;SDS011;48746;55.578;37.902;2022-10-18T07:04:01;22.58;;;12.32;;
62679;SDS011;48746;55.578;37.902;2022-10-18T07:06:28;32.05;;;16.17;;
62679;SDS011;48746;55.578;37.902;2022-10-18T07:08:54;27.10;;;14.20;;
62679;SDS011;48746;55.578;37.902;2022-10-18T07:14:28;22.02;;;12.40;;
62679;SDS011;48746;55.578;37.902;2022-10-18T07:16:57;21.88;;;12.00;;
62679;SDS011;48746;55.578;37.902;2022-10-18T07:19:24;31.67;;;13.70;;
62679;SDS011;48746;55.578;37.902;2022-10-18T07:24:56;24.35;;;11.60;;
62679;SDS011;48746;55.578;37.902;2022-10-18T07:31:29;23.35;;;12.75;;
62679;SDS011;48746;55.578;37.902;2022-10-18T07:33:55;19.70;;;10.80;;
62679;SDS011;48746;55.578;37.902;2022-10-18T07:36:22;24.83;;;12.02;;
62679;SDS011;48746;55.578;37.902;2022-10-18T07:38:50;23.15;;;11.95;;
62679;SDS011;48746;55.578;37.902;2022-10-18T07:41:19;22.52;;;11.23;;
62679;SDS011;48746;55.578;37.902;2022-10-18T07:43:47;20.38;;;10.48;;
62679;SDS011;48746;55.578;37.902;2022-10-18T07:46:18;24.05;;;11.43;;
62679;SDS011;48746;55.578;37.902;2022-10-18T07:48:45;24.67;;;12.73;;
62679;SDS011;48746;55.578;37.902;2022-10-18T07:51:16;21.52;;;11.27;;
62679;SDS011;48746;55.578;37.902;2022-10-18T07:53:43;24.20;;;11.57;;
62679;SDS011;48746;55.578;37.902;2022-10-18T07:56:10;23.00;;;11.57;;
62679;SDS011;48746;55.578;37.902;2022-10-18T07:58:44;20.25;;;11.55;;
62679;SDS011;48746;55.578;37.902;2022-10-18T08:01:14;17.85;;;10.30;;
62679;SDS011;48746;55.578;37.902;2022-10-18T08:03:40;20.10;;;11.38;;
62679;SDS011;48746;55.578;37.902;2022-10-18T08:06:07;19.80;;;10.27;;
62679;SDS011;48746;55.578;37.902;2022-10-18T08:08:35;21.77;;;11.00;;
62679;SDS011;48746;55.578;37.902;2022-10-18T08:11:07;18.65;;;10.30;;
62679;SDS011;48746;55.578;37.902;2022-10-18T08:13:34;21.23;;;10.60;;
62679;SDS011;48746;55.578;37.902;2022-10-18T08:16:02;21.48;;;10.95;;
62679;SDS011;48746;55.578;37.902;2022-10-18T08:18:30;20.75;;;11.13;;
62679;SDS011;48746;55.578;37.902;2022-10-18T08:20:58;29.55;;;15.57;;
62679;SDS011;48746;55.578;37.902;2022-10-18T08:23:25;27.25;;;11.43;;
62679;SDS011;48746;55.578;37.902;2022-10-18T08:25:51;20.95;;;11.65;;
62679;SDS011;48746;55.578;37.902;2022-10-18T08:28:17;24.17;;;10.93;;
62679;SDS011;48746;55.578;37.902;2022-10-18T08:30:44;20.85;;;10.82;;
62679;SDS011;48746;55.578;37.902;2022-10-18T08:33:10;19.77;;;10.55;;
62679;SDS011;48746;55.578;37.902;2022-10-18T08:35:36;19.15;;;11.18;;
62679;SDS011;48746;55.578;37.902;2022-10-18T08:38:03;19.73;;;11.15;;
62679;SDS011;48746;55.578;37.902;2022-10-18T08:40:29;20.98;;;11.32;;
62679;SDS011;48746;55.578;37.902;2022-10-18T08:45:42;23.30;;;10.93;;
62679;SDS011;48746;55.578;37.902;2022-10-18T08:48:15;23.73;;;11.57;;
62679;SDS011;48746;55.578;37.902;2022-10-18T08:50:45;21.75;;;10.98;;
62679;SDS011;48746;55.578;37.902;2022-10-18T08:53:18;20.92;;;11.90;;
62679;SDS011;48746;55.578;37.902;2022-10-18T08:55:49;24.40;;;11.80;;
62679;SDS011;48746;55.578;37.902;2022-10-18T08:58:25;18.20;;;11.30;;
62679;SDS011;48746;55.578;37.902;2022-10-18T09:06:30;18.90;;;10.60;;
62679;SDS011;48746;55.578;37.902;2022-10-18T09:25:54;18.45;;;9.63;;
62679;SDS011;48746;55.578;37.902;2022-10-18T09:31:06;20.20;;;9.93;;
62679;SDS011;48746;55.578;37.902;2022-10-18T09:36:17;15.60;;;9.10;;
62679;SDS011;48746;55.578;37.902;2022-10-18T09:38:50;14.90;;;8.57;;
62679;SDS011;48746;55.578;37.902;2022-10-18T09:44:24;15.00;;;9.25;;
62679;SDS011;48746;55.578;37.902;2022-10-18T09:46:57;16.52;;;9.05;;
62679;SDS011;48746;55.578;37.902;2022-10-18T09:49:31;16.98;;;8.55;;
62679;SDS011;48746;55.578;37.902;2022-10-18T09:55:11;12.05;;;7.93;;
62679;SDS011;48746;55.578;37.902;2022-10-18T09:57:42;12.80;;;8.02;;
62679;SDS011;48746;55.578;37.902;2022-10-18T10:00:40;14.32;;;8.85;;
62679;SDS011;48746;55.578;37.902;2022-10-18T10:03:12;15.60;;;9.38;;
62679;SDS011;48746;55.578;37.902;2022-10-18T10:05:42;13.23;;;7.95;;
62679;SDS011;48746;55.578;37.902;2022-10-18T10:08:09;14.05;;;8.98;;
62679;SDS011;48746;55.578;37.902;2022-10-18T10:10:37;15.80;;;10.10;;
62679;SDS011;48746;55.578;37.902;2022-10-18T10:13:16;14.20;;;9.70;;
62679;SDS011;48746;55.578;37.902;2022-10-18T10:18:24;15.25;;;7.97;;
62679;SDS011;48746;55.578;37.902;2022-10-18T10:21:06;15.05;;;9.43;;
62679;SDS011;48746;55.578;37.902;2022-10-18T10:23:38;12.23;;;8.60;;
62679;SDS011;48746;55.578;37.902;2022-10-18T10:28:56;13.60;;;8.95;;
62679;SDS011;48746;55.578;37.902;2022-10-18T10:36:32;12.27;;;7.90;;
62679;SDS011;48746;55.578;37.902;2022-10-18T10:41:40;12.48;;;8.27;;
62679;SDS011;48746;55.578;37.902;2022-10-18T10:44:14;11.32;;;8.02;;
62679;SDS011;48746;55.578;37.902;2022-10-18T10:46:41;11.88;;;8.75;;
62679;SDS011;48746;55.578;37.902;2022-10-18T10:49:12;16.77;;;10.25;;
62679;SDS011;48746;55.578;37.902;2022-10-18T10:51:53;15.90;;;9.57;;
62679;SDS011;48746;55.578;37.902;2022-10-18T10:54:21;13.68;;;9.40;;
62679;SDS011;48746;55.578;37.902;2022-10-18T10:59:23;13.52;;;10.30;;
62679;SDS011;48746;55.578;37.902;2022-10-18T11:04:37;17.13;;;10.57;;
62679;SDS011;48746;55.578;37.902;2022-10-18T11:10:00;19.52;;;13.02;;
62679;SDS011;48746;55.578;37.902;2022-10-18T11:17:47;19.08;;;14.15;;
62679;SDS011;48746;55.578;37.902;2022-10-18T11:20:37;20.95;;;14.57;;
62679;SDS011;48746;55.578;37.902;2022-10-18T11:23:13;22.70;;;15.13;;
62679;SDS011;48746;55.578;37.902;2022-10-18T11:28:17;26.67;;;15.30;;
62679;SDS011;48746;55.578;37.902;2022-10-18T11:36:17;21.23;;;15.73;;
62679;SDS011;48746;55.578;37.902;2022-10-18T11:38:56;26.40;;;16.75;;
62679;SDS011;48746;55.578;37.902;2022-10-18T11:44:43;24.65;;;16.73;;
62679;SDS011;48746;55.578;37.902;2022-10-18T11:50:07;23.88;;;16.55;;
62679;SDS011;48746;55.578;37.902;2022-10-18T11:55:44;21.15;;;14.80;;
62679;SDS011;48746;55.578;37.902;2022-10-18T11:59:15;26.52;;;16.77;;
62679;SDS011;48746;55.578;37.902;2022-10-18T12:04:37;25.80;;;16.52;;
62679;SDS011;48746;55.578;37.902;2022-10-18T12:07:06;24.90;;;15.38;;
62679;SDS011;48746;55.578;37.902;2022-10-18T12:09:36;19.42;;;14.40;;
62679;SDS011;48746;55.578;37.902;2022-10-18T12:15:02;21.08;;;14.55;;
62679;SDS011;48746;55.578;37.902;2022-10-18T12:17:42;23.15;;;15.98;;
62679;SDS011;48746;55.578;37.902;2022-10-18T12:20:12;22.05;;;16.63;;
62679;SDS011;48746;55.578;37.902;2022-10-18T12:22:47;25.00;;;16.67;;
62679;SDS011;48746;55.578;37.902;2022-10-18T12:25:16;29.20;;;18.95;;
62679;SDS011;48746;55.578;37.902;2022-10-18T12:27:45;25.17;;;16.77;;
62679;SDS011;48746;55.578;37.902;2022-10-18T12:30:19;25.88;;;17.30;;
62679;SDS011;48746;55.578;37.902;2022-10-18T12:32:47;30.30;;;15.85;;
62679;SDS011;48746;55.578;37.902;2022-10-18T12:35:14;21.40;;;14.43;;
62679;SDS011;48746;55.578;37.902;2022-10-18T12:43:06;19.60;;;13.35;;
62679;SDS011;48746;55.578;37.902;2022-10-18T12:46:02;23.65;;;13.05;;
62679;SDS011;48746;55.578;37.902;2022-10-18T12:54:14;18.00;;;12.43;;
62679;SDS011;48746;55.578;37.902;2022-10-18T12:56:42;16.98;;;12.65;;
62679;SDS011;48746;55.578;37.902;2022-10-18T13:04:46;14.27;;;11.00;;
62679;SDS011;48746;55.578;37.902;2022-10-18T13:09:39;15.43;;;12.02;;
62679;SDS011;48746;55.578;37.902;2022-10-18T13:15:18;17.67;;;10.88;;
62679;SDS011;48746;55.578;37.902;2022-10-18T13:22:57;15.57;;;9.15;;
62679;SDS011;48746;55.578;37.902;2022-10-18T13:39:45;11.10;;;7.88;;
62679;SDS011;48746;55.578;37.902;2022-10-18T13:50:55;13.90;;;8.35;;
62679;SDS011;48746;55.578;37.902;2022-10-18T13:53:30;12.60;;;8.57;;
62679;SDS011;48746;55.578;37.902;2022-10-18T13:56:18;11.63;;;8.82;;
62679;SDS011;48746;55.578;37.902;2022-10-18T14:05:04;6.57;;;5.03;;
62679;SDS011;48746;55.578;37.902;2022-10-18T14:07:47;7.43;;;4.68;;
62679;SDS011;48746;55.578;37.902;2022-10-18T14:15:33;5.15;;;3.97;;
62679;SDS011;48746;55.578;37.902;2022-10-18T14:18:14;7.70;;;3.90;;
62679;SDS011;48746;55.578;37.902;2022-10-18T14:20:45;5.43;;;3.83;;
62679;SDS011;48746;55.578;37.902;2022-10-18T14:25:42;6.53;;;3.33;;
62679;SDS011;48746;55.578;37.902;2022-10-18T14:28:19;5.90;;;3.30;;
62679;SDS011;48746;55.578;37.902;2022-10-18T14:36:10;4.00;;;2.58;;
62679;SDS011;48746;55.578;37.902;2022-10-18T14:38:45;4.75;;;2.63;;
62679;SDS011;48746;55.578;37.902;2022-10-18T14:44:26;3.90;;;2.35;;
62679;SDS011;48746;55.578;37.902;2022-10-18T14:47:00;2.70;;;2.22;;
62679;SDS011;48746;55.578;37.902;2022-10-18T14:49:29;4.32;;;2.25;;
62679;SDS011;48746;55.578;37.902;2022-10-18T14:55:02;3.40;;;2.30;;
62679;SDS011;48746;55.578;37.902;2022-10-18T14:57:32;3.72;;;1.85;;
62679;SDS011;48746;55.578;37.902;2022-10-18T15:00:02;4.10;;;1.83;;
62679;SDS011;48746;55.578;37.902;2022-10-18T15:02:31;2.63;;;1.50;;
62679;SDS011;48746;55.578;37.902;2022-10-18T15:05:04;8.35;;;1.60;;
62679;SDS011;48746;55.578;37.902;2022-10-18T15:07:30;2.08;;;1.50;;
62679;SDS011;48746;55.578;37.902;2022-10-18T15:09:58;2.45;;;1.60;;
62679;SDS011;48746;55.578;37.902;2022-10-18T15:15:32;1.42;;;1.17;;
62679;SDS011;48746;55.578;37.902;2022-10-18T15:17:58;1.50;;;1.25;;
62679;SDS011;48746;55.578;37.902;2022-10-18T15:25:43;2.97;;;1.80;;
62679;SDS011;48746;55.578;37.902;2022-10-18T15:28:16;2.08;;;1.50;;
62679;SDS011;48746;55.578;37.902;2022-10-18T15:30:51;2.80;;;1.80;;
62679;SDS011;48746;55.578;37.902;2022-10-18T15:33:20;1.98;;;1.58;;
62679;SDS011;48746;55.578;37.902;2022-10-18T15:35:47;4.20;;;1.52;;
62679;SDS011;48746;55.578;37.902;2022-10-18T15:40:46;4.05;;;1.70;;
62679;SDS011;48746;55.578;37.902;2022-10-18T15:45:57;2.13;;;1.30;;
62679;SDS011;48746;55.578;37.902;2022-10-18T15:48:26;1.73;;;1.30;;
62679;SDS011;48746;55.578;37.902;2022-10-18T15:54:02;2.00;;;1.05;;
62679;SDS011;48746;55.578;37.902;2022-10-18T15:59:04;2.30;;;1.25;;
62679;SDS011;48746;55.578;37.902;2022-10-18T16:01:40;1.58;;;1.20;;
62679;SDS011;48746;55.578;37.902;2022-10-18T16:06:42;1.20;;;1.00;;
62679;SDS011;48746;55.578;37.902;2022-10-18T16:09:11;1.15;;;1.05;;
62679;SDS011;48746;55.578;37.902;2022-10-18T16:14:47;3.55;;;1.30;;
62679;SDS011;48746;55.578;37.902;2022-10-18T16:17:14;1.90;;;1.00;;
62679;SDS011;48746;55.578;37.902;2022-10-18T16:19:42;2.70;;;1.20;;
62679;SDS011;48746;55.578;37.902;2022-10-18T16:25:12;3.05;;;1.00;;
62679;SDS011;48746;55.578;37.902;2022-10-18T16:27:39;4.00;;;3.00;;
62679;SDS011;48746;55.578;37.902;2022-10-18T16:30:09;2.85;;;1.58;;
62679;SDS011;48746;55.578;37.902;2022-10-18T16:32:40;4.20;;;1.30;;
62679;SDS011;48746;55.578;37.902;2022-10-18T16:35:07;3.10;;;1.10;;
62679;SDS011;48746;55.578;37.902;2022-10-18T16:37:34;2.58;;;1.30;;
62679;SDS011;48746;55.578;37.902;2022-10-18T16:43:00;2.78;;;1.25;;
62679;SDS011;48746;55.578;37.902;2022-10-18T16:45:26;3.55;;;1.08;;
62679;SDS011;48746;55.578;37.902;2022-10-18T16:47:52;1.77;;;1.30;;
62679;SDS011;48746;55.578;37.902;2022-10-18T16:50:18;3.92;;;1.27;;
62679;SDS011;48746;55.578;37.902;2022-10-18T16:52:46;1.02;;;0.93;;
62679;SDS011;48746;55.578;37.902;2022-10-18T16:55:13;2.10;;;1.33;;
62679;SDS011;48746;55.578;37.902;2022-10-18T16:57:42;4.43;;;1.60;;
62679;SDS011;48746;55.578;37.902;2022-10-18T17:00:19;2.28;;;1.42;;
62679;SDS011;48746;55.578;37.902;2022-10-18T17:05:53;3.42;;;1.00;;
62679;SDS011;48746;55.578;37.902;2022-10-18T17:08:22;1.02;;;0.80;;
62679;SDS011;48746;55.578;37.902;2022-10-18T17:10:54;1.17;;;0.77;;
62679;SDS011;48746;55.578;37.902;2022-10-18T17:13:22;3.67;;;0.90;;
62679;SDS011;48746;55.578;37.902;2022-10-18T17:15:49;1.75;;;1.50;;
62679;SDS011;48746;55.578;37.902;2022-10-18T17:18:19;1.95;;;0.90;;
62679;SDS011;48746;55.578;37.902;2022-10-18T17:20:47;1.38;;;0.90;;
62679;SDS011;48746;55.578;37.902;2022-10-18T17:23:14;2.50;;;1.00;;
62679;SDS011;48746;55.578;37.902;2022-10-18T17:25:41;4.40;;;1.67;;
62679;SDS011;48746;55.578;37.902;2022-10-18T17:28:12;1.48;;;0.75;;
62679;SDS011;48746;55.578;37.902;2022-10-18T17:30:40;4.70;;;1.00;;
62679;SDS011;48746;55.578;37.902;2022-10-18T17:33:06;1.95;;;0.70;;
62679;SDS011;48746;55.578;37.902;2022-10-18T17:35:33;0.57;;;0.57;;
62679;SDS011;48746;55.578;37.902;2022-10-18T17:37:59;1.27;;;0.90;;
62679;SDS011;48746;55.578;37.902;2022-10-18T17:40:25;5.80;;;0.70;;
62679;SDS011;48746;55.578;37.902;2022-10-18T17:42:52;0.80;;;0.60;;
62679;SDS011;48746;55.578;37.902;2022-10-18T17:45:19;0.75;;;0.68;;
62679;SDS011;48746;55.578;37.902;2022-10-18T17:47:46;1.08;;;0.80;;
62679;SDS011;48746;55.578;37.902;2022-10-18T17:50:13;0.90;;;0.80;;
62679;SDS011;48746;55.578;37.902;2022-10-18T17:52:44;1.50;;;0.82;;
62679;SDS011;48746;55.578;37.902;2022-10-18T17:55:11;1.50;;;0.90;;
62679;SDS011;48746;55.578;37.902;2022-10-18T17:57:38;5.03;;;0.70;;
62679;SDS011;48746;55.578;37.902;2022-10-18T18:00:06;0.90;;;0.63;;
62679;SDS011;48746;55.578;37.902;2022-10-18T18:05:47;1.50;;;0.80;;
62679;SDS011;48746;55.578;37.902;2022-10-18T18:08:14;1.27;;;0.98;;
62679;SDS011;48746;55.578;37.902;2022-10-18T18:10:41;1.23;;;0.77;;
62679;SDS011;48746;55.578;37.902;2022-10-18T18:13:07;0.98;;;0.60;;
62679;SDS011;48746;55.578;37.902;2022-10-18T18:15:33;0.90;;;0.80;;
62679;SDS011;48746;55.578;37.902;2022-10-18T18:17:59;1.08;;;0.98;;
62679;SDS011;48746;55.578;37.902;2022-10-18T18:20:25;1.55;;;0.95;;
62679;SDS011;48746;55.578;37.902;2022-10-18T18:22:52;1.65;;;0.70;;
62679;SDS011;48746;55.578;37.902;2022-10-18T18:25:18;1.30;;;0.80;;
62679;SDS011;48746;55.578;37.902;2022-10-18T18:27:44;0.88;;;0.63;;
62679;SDS011;48746;55.578;37.902;2022-10-18T18:30:10;1.38;;;1.02;;
62679;SDS011;48746;55.578;37.902;2022-10-18T18:32:38;2.00;;;1.52;;
62679;SDS011;48746;55.578;37.902;2022-10-18T18:35:04;1.00;;;0.60;;
62679;SDS011;48746;55.578;37.902;2022-10-18T18:37:30;1.20;;;0.70;;
62679;SDS011;48746;55.578;37.902;2022-10-18T18:39:57;0.75;;;0.50;;
62679;SDS011;48746;55.578;37.902;2022-10-18T18:45:30;2.42;;;1.30;;
62679;SDS011;48746;55.578;37.902;2022-10-18T18:47:56;1.98;;;1.10;;
62679;SDS011;48746;55.578;37.902;2022-10-18T18:50:22;1.85;;;0.98;;
62679;SDS011;48746;55.578;37.902;2022-10-18T18:52:48;2.08;;;1.30;;
62679;SDS011;48746;55.578;37.902;2022-10-18T18:55:14;6.28;;;1.60;;
62679;SDS011;48746;55.578;37.902;2022-10-18T18:57:40;2.70;;;1.40;;
62679;SDS011;48746;55.578;37.902;2022-10-18T19:00:07;2.40;;;1.20;;
62679;SDS011;48746;55.578;37.902;2022-10-18T19:05:41;4.22;;;1.30;;
62679;SDS011;48746;55.578;37.902;2022-10-18T19:08:07;3.58;;;1.17;;
62679;SDS011;48746;55.578;37.902;2022-10-18T19:10:34;4.57;;;1.33;;
62679;SDS011;48746;55.578;37.902;2022-10-18T19:13:00;4.53;;;2.03;;